Concho, Oklahoma
Current Conditions -  °F | °C
As of 6:15 AM on Friday 19 Dec 2014 (Local Time) from KRQO Reporting Station
Overcast Overcast  
Wind Chill: 30°   Ceiling: 100
Heat Index: 36°   Visibility: NA
Dew Point: 36°   Wind: 7mph
Humidity: 100%   Direction: 20°NNE
Pressure: 30.22"   Gusts: NA
Location:  35.62°N, 97.99°W
Report Text: KRQO 191215Z AUTO 02006KT OVC001 02/02 A3022 RMK AO2 PWINO
Loading
Personal Weather Stations






























Interactive Weather Map New forecast layout! Learn more

10-Day Weather Forecast

Advertisements
Track Severe Weather on mobile